createdAt,value
2019-02-15T00:02:02.997Z,6.93
2019-02-15T00:04:34.979Z,6.92
2019-02-15T00:07:07.067Z,6.85
2019-02-15T00:09:38.794Z,6.82
2019-02-15T00:12:10.677Z,6.73
2019-02-15T00:14:49.695Z,6.62
2019-02-15T00:17:39.737Z,6.61
2019-02-15T00:20:16.953Z,6.66
2019-02-15T00:22:48.970Z,6.61
2019-02-15T00:25:20.630Z,6.61
2019-02-15T00:27:52.306Z,6.60
2019-02-15T00:30:23.895Z,6.57
2019-02-15T00:32:55.553Z,6.56
2019-02-15T00:35:28.120Z,6.52
2019-02-15T00:38:00.029Z,6.43
2019-02-15T00:40:31.621Z,6.37
2019-02-15T00:43:03.490Z,6.32
2019-02-15T00:45:41.655Z,6.30
2019-02-15T00:48:16.974Z,6.25
2019-02-15T00:50:55.471Z,6.22
2019-02-15T00:53:40.004Z,6.19
2019-02-15T00:56:48.759Z,6.14
2019-02-15T00:59:36.626Z,6.10
2019-02-15T01:02:29.368Z,6.06
2019-02-15T01:05:11.994Z,6.03
2019-02-15T01:08:11.325Z,5.93
2019-02-15T01:10:51.882Z,5.81
2019-02-15T01:13:30.884Z,5.79
2019-02-15T01:15:59.067Z,5.84
2019-02-15T01:18:30.667Z,5.78
2019-02-15T01:21:02.334Z,5.72
2019-02-15T01:23:34.195Z,5.67
2019-02-15T01:26:20.037Z,5.70
2019-02-15T01:29:09.137Z,5.54
2019-02-15T01:32:16.268Z,5.51
2019-02-15T01:35:05.249Z,5.44
2019-02-15T01:37:45.937Z,5.39
2019-02-15T01:40:35.525Z,5.42
2019-02-15T01:43:26.384Z,5.41
2019-02-15T01:46:25.711Z,5.35
2019-02-15T01:48:57.744Z,5.32
2019-02-15T01:51:29.589Z,5.31
2019-02-15T01:54:01.343Z,5.23
2019-02-15T01:56:33.256Z,5.28
2019-02-15T01:59:04.991Z,5.28
2019-02-15T02:01:36.584Z,5.23
2019-02-15T02:04:08.437Z,5.18
2019-02-15T02:06:40.267Z,4.96
2019-02-15T02:09:11.977Z,4.86
2019-02-15T02:11:44.380Z,4.78
2019-02-15T02:14:17.131Z,4.78
2019-02-15T02:16:49.487Z,4.73
2019-02-15T02:19:21.180Z,4.75
2019-02-15T02:21:54.131Z,4.67
2019-02-15T02:24:26.154Z,4.72
2019-02-15T02:26:57.737Z,4.60
2019-02-15T02:29:29.539Z,4.61
2019-02-15T02:32:01.358Z,4.61
2019-02-15T02:34:33.261Z,4.64
2019-02-15T02:37:04.940Z,4.63
2019-02-15T02:39:37.829Z,4.52
2019-02-15T02:42:10.129Z,4.42
2019-02-15T02:44:41.986Z,4.38
2019-02-15T02:47:13.599Z,4.37
2019-02-15T02:49:47.644Z,4.37
2019-02-15T02:52:19.811Z,4.38
2019-02-15T02:54:51.428Z,4.37
2019-02-15T02:57:23.092Z,4.33
2019-02-15T02:59:54.815Z,4.25
2019-02-15T03:02:27.416Z,4.31
2019-02-15T03:04:59.738Z,4.27
2019-02-15T03:07:31.571Z,4.31
2019-02-15T03:10:03.296Z,4.28
2019-02-15T03:12:35.466Z,4.30
2019-02-15T03:15:07.737Z,4.29
2019-02-15T03:17:39.705Z,4.20
2019-02-15T03:20:11.548Z,4.23
2019-02-15T03:22:43.210Z,4.17
2019-02-15T03:25:14.868Z,4.09
2019-02-15T03:27:46.521Z,3.98
2019-02-15T03:30:18.153Z,3.98
2019-02-15T03:32:49.853Z,3.89
2019-02-15T03:35:21.532Z,3.90
2019-02-15T03:38:20.833Z,3.87
2019-02-15T03:40:58.326Z,3.93
2019-02-15T03:43:30.116Z,3.92
2019-02-15T03:46:01.791Z,3.85
2019-02-15T03:48:33.377Z,3.64
2019-02-15T03:51:04.975Z,3.56
2019-02-15T03:53:36.617Z,3.52
2019-02-15T03:56:08.227Z,3.44
2019-02-15T03:58:39.892Z,3.53
2019-02-15T04:01:11.552Z,3.52
2019-02-15T04:03:43.151Z,3.63
2019-02-15T04:06:14.753Z,3.53
2019-02-15T04:08:46.338Z,3.58
2019-02-15T04:11:18.005Z,3.54
2019-02-15T04:13:49.599Z,3.47
2019-02-15T04:16:21.205Z,3.39
2019-02-15T04:18:52.784Z,3.22
2019-02-15T04:21:24.376Z,3.34
2019-02-15T04:23:56.043Z,3.40
2019-02-15T04:26:27.712Z,3.37
2019-02-15T04:28:59.458Z,3.38
2019-02-15T04:31:31.341Z,3.33
2019-02-15T04:34:03.264Z,3.32
2019-02-15T04:36:34.839Z,3.24
2019-02-15T04:39:06.745Z,3.11
2019-02-15T04:41:38.340Z,3.08
2019-02-15T04:44:10.002Z,3.14
2019-02-15T04:46:41.587Z,3.09
2019-02-15T04:49:13.277Z,3.09
2019-02-15T04:51:44.946Z,3.07
2019-02-15T04:54:16.693Z,3.13
2019-02-15T04:56:48.286Z,3.05
2019-02-15T04:59:19.868Z,3.08
2019-02-15T05:01:51.482Z,3.05
2019-02-15T05:04:23.160Z,3.02
2019-02-15T05:06:54.774Z,3.03
2019-02-15T05:09:26.376Z,2.99
2019-02-15T05:11:58.024Z,2.93
2019-02-15T05:14:29.636Z,2.91
2019-02-15T05:17:01.438Z,2.84
2019-02-15T05:19:34.416Z,2.82
2019-02-15T05:22:06.021Z,2.79
2019-02-15T05:24:37.647Z,2.61
2019-02-15T05:27:09.332Z,2.62
2019-02-15T05:29:40.947Z,2.52
2019-02-15T05:32:12.537Z,2.39
2019-02-15T05:34:44.162Z,2.37
2019-02-15T05:37:15.754Z,2.26
2019-02-15T05:39:47.377Z,2.27
2019-02-15T05:42:18.993Z,2.21
2019-02-15T05:44:50.599Z,2.29
2019-02-15T05:47:22.200Z,2.27
2019-02-15T05:49:53.980Z,2.18
2019-02-15T05:52:25.581Z,2.13
2019-02-15T05:54:57.231Z,2.12
2019-02-15T05:57:28.839Z,2.25
2019-02-15T06:00:00.562Z,2.19
2019-02-15T06:02:32.247Z,2.27
2019-02-15T06:05:03.901Z,2.21
2019-02-15T06:07:35.559Z,2.23
2019-02-15T06:10:07.709Z,2.22
2019-02-15T06:12:40.362Z,2.24
2019-02-15T06:15:15.197Z,2.29
2019-02-15T06:17:45.338Z,2.33
2019-02-15T06:20:16.924Z,2.30
2019-02-15T06:22:48.520Z,2.28
2019-02-15T06:25:20.178Z,2.27
2019-02-15T06:27:51.774Z,2.37
2019-02-15T06:30:23.369Z,2.39
2019-02-15T06:32:54.955Z,2.42
2019-02-15T06:35:26.536Z,2.38
2019-02-15T06:37:58.123Z,2.37
2019-02-15T06:40:29.803Z,2.41
2019-02-15T06:43:01.473Z,2.43
2019-02-15T06:45:33.411Z,2.32
2019-02-15T06:48:05.002Z,2.35
2019-02-15T06:50:36.621Z,2.28
2019-02-15T06:53:09.929Z,2.26
2019-02-15T06:55:41.776Z,2.43
2019-02-15T06:58:13.384Z,2.56
2019-02-15T07:00:58.033Z,2.56
2019-02-15T07:03:57.702Z,2.64
2019-02-15T07:06:29.448Z,2.69
2019-02-15T07:09:01.049Z,2.77
2019-02-15T07:11:34.456Z,2.83
2019-02-15T07:14:06.355Z,2.82
2019-02-15T07:16:38.051Z,2.79
2019-02-15T07:19:09.644Z,2.86
2019-02-15T07:21:41.338Z,2.95
2019-02-15T07:24:12.929Z,2.94
2019-02-15T07:26:44.635Z,2.96
2019-02-15T07:29:16.369Z,2.97
2019-02-15T07:31:47.975Z,3.02
2019-02-15T07:34:19.562Z,3.02
2019-02-15T07:36:51.242Z,3.04
2019-02-15T07:39:22.818Z,3.01
2019-02-15T07:41:54.443Z,3.07
2019-02-15T07:44:26.038Z,3.08
2019-02-15T07:46:57.646Z,3.15
2019-02-15T07:49:29.248Z,3.16
2019-02-15T07:52:00.929Z,3.20
2019-02-15T07:54:32.600Z,3.27
2019-02-15T07:57:04.489Z,3.27
2019-02-15T07:59:36.401Z,3.34
2019-02-15T08:02:08.007Z,3.44
2019-02-15T08:04:39.661Z,3.52
2019-02-15T08:07:11.269Z,3.58
2019-02-15T08:09:42.862Z,3.60
2019-02-15T08:12:14.474Z,3.73
2019-02-15T08:14:46.073Z,3.80
2019-02-15T08:17:17.696Z,3.92
2019-02-15T08:19:49.291Z,3.96
2019-02-15T08:22:22.708Z,3.99
2019-02-15T08:24:54.241Z,3.96
2019-02-15T08:27:25.842Z,3.96
2019-02-15T08:29:59.171Z,3.93
2019-02-15T08:32:30.969Z,4.04
2019-02-15T08:35:02.745Z,4.09
2019-02-15T08:37:34.636Z,4.07
2019-02-15T08:40:07.182Z,4.11
2019-02-15T08:42:38.859Z,4.16
2019-02-15T08:45:11.940Z,4.22
2019-02-15T08:47:44.609Z,4.32
2019-02-15T08:50:16.300Z,4.28
2019-02-15T08:52:48.136Z,4.29
2019-02-15T08:55:21.204Z,4.37
2019-02-15T08:57:52.852Z,4.41
2019-02-15T09:00:24.487Z,4.51
2019-02-15T09:02:58.967Z,4.62
2019-02-15T09:05:32.765Z,4.73
2019-02-15T09:08:04.627Z,4.88
2019-02-15T09:10:36.660Z,5.00
2019-02-15T09:13:08.763Z,5.07
2019-02-15T09:15:40.607Z,5.22
2019-02-15T09:18:12.542Z,5.20
2019-02-15T09:20:44.785Z,5.33
2019-02-15T09:23:16.899Z,5.31
2019-02-15T09:25:50.131Z,5.24
2019-02-15T09:28:37.173Z,5.36
2019-02-15T09:31:09.011Z,5.54
2019-02-15T09:33:41.061Z,5.68
2019-02-15T09:36:13.432Z,5.82
2019-02-15T09:38:45.506Z,6.00
2019-02-15T09:41:17.403Z,5.99
2019-02-15T09:43:49.082Z,6.01
2019-02-15T09:46:20.699Z,5.89
2019-02-15T09:48:53.807Z,5.66
2019-02-15T09:51:27.468Z,5.55
2019-02-15T09:53:59.836Z,5.85
2019-02-15T09:56:31.910Z,6.01
2019-02-15T09:59:04.304Z,6.01
2019-02-15T10:01:37.315Z,6.20
2019-02-15T10:04:10.549Z,6.46
2019-02-15T10:06:43.637Z,6.26
2019-02-15T10:09:17.199Z,6.58
2019-02-15T10:11:49.146Z,6.61
2019-02-15T10:14:21.037Z,6.88
2019-02-15T10:16:53.187Z,6.58
2019-02-15T10:19:25.023Z,6.94
2019-02-15T10:21:57.119Z,6.60
2019-02-15T10:24:29.276Z,6.42
2019-02-15T10:27:01.003Z,6.28
2019-02-15T10:29:32.936Z,5.88
2019-02-15T10:32:05.148Z,5.67
2019-02-15T10:34:40.757Z,5.38
2019-02-15T10:37:12.944Z,5.29
2019-02-15T10:39:44.550Z,5.21
2019-02-15T10:42:18.385Z,5.18
2019-02-15T10:44:50.781Z,5.04
2019-02-15T10:47:25.229Z,4.94
2019-02-15T10:50:00.401Z,4.95
2019-02-15T10:52:32.565Z,4.84
2019-02-15T10:55:04.415Z,4.55
2019-02-15T10:57:36.102Z,4.23
2019-02-15T11:00:11.017Z,4.22
2019-02-15T11:02:43.038Z,4.03
2019-02-15T11:05:14.723Z,3.98
2019-02-15T11:07:46.901Z,4.00
2019-02-15T11:10:19.187Z,3.89
2019-02-15T11:12:51.107Z,3.84
2019-02-15T11:15:24.388Z,3.85
2019-02-15T11:17:56.097Z,3.87
2019-02-15T11:20:27.709Z,3.88
2019-02-15T11:22:59.505Z,3.91
2019-02-15T11:25:31.290Z,4.11
2019-02-15T11:28:03.204Z,4.04
2019-02-15T11:30:34.869Z,4.08
2019-02-15T11:33:06.465Z,3.99
2019-02-15T11:35:38.073Z,4.12
2019-02-15T11:38:09.736Z,4.08
2019-02-15T11:40:41.408Z,4.08
2019-02-15T11:43:15.072Z,4.04
2019-02-15T11:45:46.386Z,4.03
2019-02-15T11:48:17.996Z,4.10
2019-02-15T11:50:49.940Z,4.22
2019-02-15T11:53:23.498Z,4.23
2019-02-15T11:55:56.672Z,4.14
2019-02-15T11:58:29.341Z,4.18
2019-02-15T12:01:01.087Z,4.39
2019-02-15T12:03:32.925Z,4.43
2019-02-15T12:06:04.784Z,4.42
2019-02-15T12:08:36.610Z,4.31
2019-02-15T12:11:08.380Z,4.22
2019-02-15T12:13:40.055Z,4.28
2019-02-15T12:16:11.831Z,4.46
2019-02-15T12:18:50.131Z,4.51
2019-02-15T12:21:25.783Z,4.67
2019-02-15T12:24:02.239Z,4.83
2019-02-15T12:26:39.187Z,4.87
2019-02-15T12:29:13.808Z,4.87
2019-02-15T12:31:47.488Z,4.98
2019-02-15T12:34:19.810Z,5.04
2019-02-15T12:36:53.584Z,4.85
2019-02-15T12:39:25.882Z,5.05
2019-02-15T12:41:58.946Z,5.24
2019-02-15T12:44:30.868Z,5.43
2019-02-15T12:47:02.525Z,5.43
2019-02-15T12:49:35.358Z,5.37
2019-02-15T12:52:07.075Z,5.37
2019-02-15T12:54:38.744Z,5.21
2019-02-15T12:57:10.895Z,5.38
2019-02-15T12:59:42.592Z,5.56
2019-02-15T13:02:14.233Z,5.63
2019-02-15T13:04:46.243Z,5.40
2019-02-15T13:07:17.958Z,5.47
2019-02-15T13:09:52.489Z,5.45
2019-02-15T13:12:24.540Z,5.39
2019-02-15T13:14:56.253Z,5.46
2019-02-15T13:17:28.180Z,5.43
2019-02-15T13:19:59.906Z,5.48
2019-02-15T13:22:32.070Z,5.30
2019-02-15T13:25:03.759Z,5.33
2019-02-15T13:27:35.554Z,5.35
2019-02-15T13:30:08.083Z,5.33
2019-02-15T13:32:39.768Z,5.24
2019-02-15T13:35:12.860Z,5.31
2019-02-15T13:37:44.521Z,5.23
2019-02-15T13:40:16.223Z,5.37
2019-02-15T13:42:47.987Z,5.34
2019-02-15T13:45:19.702Z,5.24
2019-02-15T13:47:51.472Z,5.52
2019-02-15T13:50:23.176Z,5.56
2019-02-15T13:52:55.050Z,5.56
2019-02-15T13:55:26.796Z,5.65
2019-02-15T13:57:58.565Z,5.61
2019-02-15T14:00:30.349Z,5.60
2019-02-15T14:03:02.614Z,5.66
2019-02-15T14:05:34.340Z,5.83
2019-02-15T14:08:06.269Z,5.95
2019-02-15T14:10:40.388Z,5.87
2019-02-15T14:13:12.431Z,5.93
2019-02-15T14:15:44.096Z,6.01
2019-02-15T14:18:16.011Z,6.15
2019-02-15T14:20:49.927Z,6.31
2019-02-15T14:23:21.830Z,6.40
2019-02-15T14:25:53.596Z,6.51
2019-02-15T14:28:25.250Z,6.63
2019-02-15T14:30:56.929Z,6.75
2019-02-15T14:33:28.704Z,6.77
2019-02-15T14:36:00.399Z,6.77
2019-02-15T14:38:32.366Z,6.83
2019-02-15T14:41:04.425Z,6.75
2019-02-15T14:43:36.211Z,6.63
2019-02-15T14:46:08.182Z,6.50
2019-02-15T14:48:40.056Z,6.57
2019-02-15T14:51:13.343Z,6.77
2019-02-15T14:53:45.089Z,6.64
2019-02-15T14:56:17.457Z,6.73
2019-02-15T14:58:49.206Z,6.63
2019-02-15T15:01:20.958Z,6.46
2019-02-15T15:03:52.734Z,6.37
2019-02-15T15:06:24.444Z,6.43
2019-02-15T15:08:56.179Z,6.54
2019-02-15T15:11:28.359Z,6.58
2019-02-15T15:14:00.159Z,6.57
2019-02-15T15:16:32.378Z,6.62
2019-02-15T15:19:04.158Z,6.63
2019-02-15T15:21:36.020Z,6.63
2019-02-15T15:24:08.179Z,6.58
2019-02-15T15:26:40.933Z,6.51
2019-02-15T15:29:12.680Z,6.53
2019-02-15T15:31:44.627Z,6.37
2019-02-15T15:34:16.334Z,6.30
2019-02-15T15:36:49.601Z,6.36
2019-02-15T15:39:21.407Z,6.38
2019-02-15T15:41:53.192Z,6.41
2019-02-15T15:44:24.859Z,6.33
2019-02-15T15:46:56.487Z,6.23
2019-02-15T15:49:28.094Z,6.16
2019-02-15T15:51:59.732Z,6.04
2019-02-15T15:54:31.554Z,6.01
2019-02-15T15:57:03.424Z,5.98
2019-02-15T15:59:35.336Z,5.99
2019-02-15T16:02:06.968Z,5.95
2019-02-15T16:04:38.625Z,5.88
2019-02-15T16:07:10.256Z,5.83
2019-02-15T16:09:41.862Z,5.71
2019-02-15T16:12:13.541Z,5.73
2019-02-15T16:14:45.282Z,5.70
2019-02-15T16:17:16.980Z,5.69
2019-02-15T16:19:49.927Z,5.60
2019-02-15T16:22:21.706Z,5.53
2019-02-15T16:24:53.390Z,5.42
2019-02-15T16:27:25.026Z,5.23
2019-02-15T16:29:56.706Z,5.22
2019-02-15T16:32:28.330Z,5.20
2019-02-15T16:34:59.951Z,5.18
2019-02-15T16:37:32.156Z,5.22
2019-02-15T16:40:03.770Z,5.13
2019-02-15T16:42:35.826Z,5.04
2019-02-15T16:45:08.092Z,4.98
2019-02-15T16:47:39.797Z,4.91
2019-02-15T16:50:11.462Z,4.87
2019-02-15T16:52:43.406Z,4.82
2019-02-15T16:55:15.033Z,4.69
2019-02-15T16:57:46.721Z,4.60
2019-02-15T17:00:18.522Z,4.54
2019-02-15T17:02:50.225Z,4.52
2019-02-15T17:05:21.906Z,4.45
2019-02-15T17:07:53.524Z,4.44
2019-02-15T17:10:25.127Z,4.30
2019-02-15T17:12:56.768Z,4.22
2019-02-15T17:15:28.584Z,4.14
2019-02-15T17:18:00.384Z,4.13
2019-02-15T17:20:32.507Z,3.99
2019-02-15T17:23:04.133Z,3.97
2019-02-15T17:25:35.810Z,3.93
2019-02-15T17:28:07.529Z,3.97
2019-02-15T17:30:39.219Z,3.94
2019-02-15T17:33:10.852Z,3.86
2019-02-15T17:35:42.524Z,3.69
2019-02-15T17:38:14.228Z,3.68
2019-02-15T17:40:45.856Z,3.63
2019-02-15T17:43:17.531Z,3.59
2019-02-15T17:45:49.208Z,3.63
2019-02-15T17:48:20.880Z,3.60
2019-02-15T17:50:52.681Z,3.59
2019-02-15T17:53:24.447Z,3.50
2019-02-15T17:55:56.045Z,3.49
2019-02-15T17:58:27.685Z,3.43
2019-02-15T18:00:59.326Z,3.46
2019-02-15T18:03:31.057Z,3.45
2019-02-15T18:06:02.880Z,3.43
2019-02-15T18:08:34.616Z,3.29
2019-02-15T18:11:06.386Z,3.23
2019-02-15T18:13:38.010Z,3.15
2019-02-15T18:16:09.622Z,3.02
2019-02-15T18:18:41.316Z,2.95
2019-02-15T18:21:14.957Z,2.89
2019-02-15T18:23:46.362Z,2.87
2019-02-15T18:26:17.974Z,2.79
2019-02-15T18:28:49.672Z,2.69
2019-02-15T18:31:21.283Z,2.64
2019-02-15T18:33:52.969Z,2.59
2019-02-15T18:36:25.157Z,2.50
2019-02-15T18:38:56.946Z,2.53
2019-02-15T18:41:28.635Z,2.59
2019-02-15T18:44:00.286Z,2.58
2019-02-15T18:46:32.998Z,2.56
2019-02-15T18:49:04.681Z,2.57
2019-02-15T18:51:36.471Z,2.51
2019-02-15T18:54:08.126Z,2.50
2019-02-15T18:56:39.683Z,2.51
2019-02-15T18:59:11.312Z,2.44
2019-02-15T19:01:42.995Z,2.39
2019-02-15T19:04:14.626Z,2.42
2019-02-15T19:06:46.236Z,2.42
2019-02-15T19:09:17.931Z,2.38
2019-02-15T19:11:50.700Z,2.30
2019-02-15T19:14:22.412Z,2.35
2019-02-15T19:16:54.145Z,2.34
2019-02-15T19:19:29.129Z,2.20
2019-02-15T19:21:59.182Z,2.15
2019-02-15T19:24:30.801Z,2.17
2019-02-15T19:27:02.831Z,2.04
2019-02-15T19:29:34.640Z,2.02
2019-02-15T19:32:06.576Z,2.21
2019-02-15T19:34:38.437Z,2.30
2019-02-15T19:37:10.039Z,2.41
2019-02-15T19:39:41.711Z,2.37
2019-02-15T19:42:19.353Z,2.44
2019-02-15T19:44:51.085Z,2.42
2019-02-15T19:47:22.779Z,2.23
2019-02-15T19:49:54.517Z,2.15
2019-02-15T19:52:26.249Z,1.99
2019-02-15T19:54:57.880Z,2.05
2019-02-15T19:57:29.525Z,2.03
2019-02-15T20:00:01.254Z,2.03
2019-02-15T20:02:33.644Z,2.13
2019-02-15T20:05:06.636Z,1.88
2019-02-15T20:07:38.536Z,1.98
2019-02-15T20:10:13.327Z,1.90
2019-02-15T20:12:45.193Z,1.82
2019-02-15T20:15:16.970Z,1.84
2019-02-15T20:17:48.617Z,1.82
2019-02-15T20:20:20.323Z,1.81
2019-02-15T20:22:52.010Z,1.65
2019-02-15T20:25:23.850Z,1.61
2019-02-15T20:27:55.601Z,1.44
2019-02-15T20:30:27.397Z,1.45
2019-02-15T20:32:59.109Z,1.50
2019-02-15T20:35:30.809Z,1.42
2019-02-15T20:38:02.937Z,1.46
2019-02-15T20:40:34.741Z,1.44
2019-02-15T20:43:06.572Z,1.13
2019-02-15T20:45:40.787Z,1.19
2019-02-15T20:48:13.248Z,1.15
2019-02-15T20:50:45.168Z,1.08
2019-02-15T20:53:19.089Z,1.07
2019-02-15T20:55:54.130Z,1.27
2019-02-15T20:58:26.075Z,1.37
2019-02-15T21:00:57.783Z,1.38
2019-02-15T21:03:30.655Z,1.50
2019-02-15T21:06:02.700Z,1.50
2019-02-15T21:08:34.677Z,1.40
2019-02-15T21:11:06.618Z,1.37
2019-02-15T21:13:38.751Z,1.28
2019-02-15T21:16:10.503Z,1.16
2019-02-15T21:18:42.210Z,1.03
2019-02-15T21:21:13.914Z,1.03
2019-02-15T21:23:45.740Z,1.07
2019-02-15T21:26:17.448Z,1.12
2019-02-15T21:28:49.231Z,1.05
2019-02-15T21:31:20.862Z,1.04
2019-02-15T21:33:52.563Z,1.00
2019-02-15T21:36:24.217Z,0.93
2019-02-15T21:38:57.859Z,0.85
2019-02-15T21:41:29.336Z,0.91
2019-02-15T21:44:00.978Z,0.93
2019-02-15T21:46:32.933Z,0.97
2019-02-15T21:49:04.674Z,1.02
2019-02-15T21:51:36.557Z,1.06
2019-02-15T21:54:08.825Z,1.24
2019-02-15T21:56:41.521Z,1.05
2019-02-15T21:59:13.255Z,1.03
2019-02-15T22:01:44.994Z,0.92
2019-02-15T22:04:16.685Z,0.94
2019-02-15T22:06:48.391Z,0.84
2019-02-15T22:09:20.097Z,1.02
2019-02-15T22:11:51.803Z,1.10
2019-02-15T22:14:23.488Z,1.09
2019-02-15T22:16:55.212Z,1.14
2019-02-15T22:19:26.899Z,1.22
2019-02-15T22:21:58.587Z,1.20
2019-02-15T22:24:30.257Z,1.22
2019-02-15T22:27:01.868Z,1.24
2019-02-15T22:29:33.794Z,1.18
2019-02-15T22:32:05.728Z,1.19
2019-02-15T22:34:37.377Z,1.18
2019-02-15T22:37:09.069Z,1.17
2019-02-15T22:39:40.680Z,1.24
2019-02-15T22:42:12.405Z,1.22
2019-02-15T22:44:44.003Z,1.09
2019-02-15T22:47:15.729Z,0.95
2019-02-15T22:49:47.378Z,0.71
2019-02-15T22:52:19.013Z,0.63
2019-02-15T22:54:50.617Z,0.72
2019-02-15T22:57:22.232Z,0.84
2019-02-15T22:59:54.688Z,0.72
2019-02-15T23:02:26.575Z,0.77
2019-02-15T23:04:58.238Z,0.67
2019-02-15T23:07:29.916Z,0.79
2019-02-15T23:10:01.892Z,0.90
2019-02-15T23:12:33.788Z,0.96
2019-02-15T23:15:06.013Z,1.02
2019-02-15T23:17:37.703Z,0.86
2019-02-15T23:20:09.325Z,0.63
2019-02-15T23:22:40.939Z,0.64
2019-02-15T23:25:12.548Z,0.56
2019-02-15T23:27:44.221Z,0.72
2019-02-15T23:30:15.892Z,0.85
2019-02-15T23:32:47.603Z,0.92
2019-02-15T23:35:19.193Z,0.88
2019-02-15T23:37:50.878Z,0.98
2019-02-15T23:40:22.558Z,1.06
2019-02-15T23:42:54.159Z,1.13
2019-02-15T23:45:25.767Z,1.01
2019-02-15T23:47:57.453Z,0.88
2019-02-15T23:50:29.084Z,0.85
2019-02-15T23:53:01.458Z,0.78
2019-02-15T23:55:33.119Z,0.72
2019-02-15T23:58:04.752Z,0.63
